createdAt,value
2022-11-05T00:02:30.612Z,9.23
2022-11-05T00:05:16.015Z,8.90
2022-11-05T00:08:06.445Z,8.40
2022-11-05T00:10:37.655Z,8.20
2022-11-05T00:13:25.878Z,8.20
2022-11-05T00:16:11.042Z,8.23
2022-11-05T00:18:38.945Z,8.27
2022-11-05T00:21:27.070Z,7.93
2022-11-05T00:24:12.452Z,8.63
2022-11-05T00:26:40.240Z,8.70
2022-11-05T00:29:09.333Z,9.20
2022-11-05T00:31:37.037Z,8.53
2022-11-05T00:34:04.764Z,8.67
2022-11-05T00:36:32.478Z,8.23
2022-11-05T00:39:00.184Z,8.70
2022-11-05T00:41:27.910Z,8.43
2022-11-05T00:44:13.246Z,7.97
2022-11-05T00:46:42.328Z,9.40
2022-11-05T00:49:27.701Z,9.23
2022-11-05T00:52:16.964Z,8.23
2022-11-05T00:54:44.711Z,8.67
2022-11-05T00:57:12.413Z,8.30
2022-11-05T00:59:40.103Z,6.50
2022-11-05T01:02:09.259Z,8.03
2022-11-05T01:04:37.115Z,6.87
2022-11-05T01:07:04.832Z,7.37
2022-11-05T01:09:32.645Z,6.97
2022-11-05T01:12:00.362Z,6.87
2022-11-05T01:14:28.142Z,7.47
2022-11-05T01:16:55.858Z,7.23
2022-11-05T01:19:24.928Z,7.10
2022-11-05T01:21:52.640Z,7.20
2022-11-05T01:24:20.322Z,7.40
2022-11-05T01:26:48.075Z,6.97
2022-11-05T01:29:15.878Z,7.23
2022-11-05T01:31:43.668Z,7.97
2022-11-05T01:34:11.349Z,6.77
2022-11-05T01:36:40.405Z,8.03
2022-11-05T01:39:08.113Z,7.43
2022-11-05T01:41:35.830Z,7.87
2022-11-05T01:44:03.554Z,7.17
2022-11-05T01:46:35.454Z,7.53
2022-11-05T01:49:09.552Z,8.10
2022-11-05T01:51:37.409Z,7.23
2022-11-05T01:54:11.090Z,8.60
2022-11-05T01:56:44.587Z,8.10
2022-11-05T01:59:17.278Z,7.83
2022-11-05T02:01:45.392Z,7.50
2022-11-05T02:04:16.872Z,7.57
2022-11-05T02:06:46.310Z,8.30
2022-11-05T02:09:22.198Z,8.87
2022-11-05T02:11:52.046Z,8.23
2022-11-05T02:14:20.375Z,9.60
2022-11-05T02:16:51.990Z,8.07
2022-11-05T02:19:46.580Z,8.20
2022-11-05T02:22:41.603Z,7.30
2022-11-05T02:25:35.914Z,7.57
2022-11-05T02:28:27.646Z,7.90
2022-11-05T02:31:03.456Z,7.70
2022-11-05T02:33:38.925Z,7.80
2022-11-05T02:36:22.492Z,7.93
2022-11-05T02:38:59.441Z,7.60
2022-11-05T02:41:35.627Z,7.20
2022-11-05T02:44:15.445Z,7.63
2022-11-05T02:46:50.024Z,7.17
2022-11-05T02:49:27.813Z,7.47
2022-11-05T02:51:59.169Z,7.43
2022-11-05T02:54:34.226Z,7.00
2022-11-05T02:57:04.225Z,7.50
2022-11-05T02:59:32.480Z,7.00
2022-11-05T03:02:04.121Z,6.40
2022-11-05T03:04:33.092Z,6.33
2022-11-05T03:07:23.585Z,6.63
2022-11-05T03:10:36.280Z,7.23
2022-11-05T03:13:15.157Z,6.73
2022-11-05T03:15:57.335Z,6.80
2022-11-05T03:18:34.953Z,6.03
2022-11-05T03:21:05.496Z,6.50
2022-11-05T03:23:37.426Z,5.90
2022-11-05T03:26:11.062Z,6.13
2022-11-05T03:28:44.025Z,5.90
2022-11-05T03:31:14.344Z,5.60
2022-11-05T03:33:45.237Z,5.57
2022-11-05T03:36:17.933Z,4.97
2022-11-05T03:38:50.041Z,5.40
2022-11-05T03:41:19.289Z,5.20
2022-11-05T03:43:51.263Z,6.17
2022-11-05T03:46:23.522Z,4.63
2022-11-05T03:48:55.832Z,5.20
2022-11-05T03:51:31.535Z,5.90
2022-11-05T03:54:01.834Z,4.70
2022-11-05T03:56:34.190Z,5.33
2022-11-05T03:59:03.689Z,4.80
2022-11-05T04:01:32.108Z,5.27
2022-11-05T04:04:01.246Z,4.87
2022-11-05T04:06:46.585Z,5.43
2022-11-05T04:09:30.857Z,4.47
2022-11-05T04:12:16.255Z,4.63
2022-11-05T04:14:43.969Z,4.37
2022-11-05T04:17:10.706Z,4.83
2022-11-05T04:19:58.845Z,4.43
2022-11-05T04:22:45.628Z,5.30
2022-11-05T04:25:14.746Z,4.33
2022-11-05T04:27:42.447Z,4.23
2022-11-05T04:30:19.232Z,4.17
2022-11-05T04:33:04.528Z,4.13
2022-11-05T04:35:35.295Z,4.13
2022-11-05T04:38:03.804Z,3.87
2022-11-05T04:40:31.506Z,3.63
2022-11-05T04:42:59.404Z,3.60
2022-11-05T04:45:29.416Z,4.13
2022-11-05T04:47:57.189Z,3.90
2022-11-05T04:50:25.037Z,3.20
2022-11-05T04:52:54.219Z,4.53
2022-11-05T04:55:22.190Z,3.27
2022-11-05T04:57:50.594Z,3.80
2022-11-05T05:00:19.334Z,4.10
2022-11-05T05:02:47.763Z,3.93
2022-11-05T05:05:15.510Z,3.87
2022-11-05T05:07:43.515Z,3.10
2022-11-05T05:10:12.955Z,4.13
2022-11-05T05:12:40.646Z,3.57
2022-11-05T05:15:08.854Z,3.03
2022-11-05T05:17:36.596Z,2.80
2022-11-05T05:20:22.220Z,2.80
2022-11-05T05:22:53.941Z,3.10
2022-11-05T05:25:23.482Z,3.00
2022-11-05T05:27:51.194Z,2.83
2022-11-05T05:30:19.372Z,2.97
2022-11-05T05:32:47.096Z,3.73
2022-11-05T05:35:14.870Z,3.03
2022-11-05T05:37:42.595Z,2.80
2022-11-05T05:40:11.802Z,2.67
2022-11-05T05:42:43.314Z,2.70
2022-11-05T05:45:12.534Z,3.20
2022-11-05T05:47:40.221Z,2.70
2022-11-05T05:50:08.304Z,2.80
2022-11-05T05:52:36.018Z,3.20
2022-11-05T05:55:03.819Z,2.30
2022-11-05T05:57:35.189Z,3.17
2022-11-05T06:00:05.370Z,3.03
2022-11-05T06:02:33.200Z,2.87
2022-11-05T06:05:01.066Z,3.33
2022-11-05T06:07:31.856Z,3.60
2022-11-05T06:10:04.189Z,3.27
2022-11-05T06:12:31.909Z,3.30
2022-11-05T06:14:59.599Z,3.30
2022-11-05T06:17:28.780Z,3.33
2022-11-05T06:19:56.463Z,3.40
2022-11-05T06:22:24.633Z,3.47
2022-11-05T06:24:52.391Z,3.43
2022-11-05T06:27:20.152Z,3.43
2022-11-05T06:29:47.964Z,4.00
2022-11-05T06:32:15.707Z,3.77
2022-11-05T06:34:44.818Z,3.70
2022-11-05T06:37:12.730Z,5.13
2022-11-05T06:39:40.441Z,5.73
2022-11-05T06:42:23.361Z,5.00
2022-11-05T06:44:52.021Z,5.93
2022-11-05T06:47:20.093Z,5.90
2022-11-05T06:49:49.266Z,6.43
2022-11-05T06:52:17.817Z,8.30
2022-11-05T06:54:45.577Z,7.50
2022-11-05T06:57:13.969Z,7.03
2022-11-05T06:59:41.743Z,7.27
2022-11-05T07:02:12.832Z,6.30
2022-11-05T07:04:40.649Z,7.13
2022-11-05T07:07:09.751Z,6.70
2022-11-05T07:09:40.361Z,6.70
2022-11-05T07:12:08.801Z,7.17
2022-11-05T07:14:36.545Z,7.47
2022-11-05T07:17:04.286Z,7.83
2022-11-05T07:19:32.005Z,8.20
2022-11-05T07:21:59.689Z,8.00
2022-11-05T07:24:28.751Z,7.43
2022-11-05T07:26:56.501Z,7.70
2022-11-05T07:29:24.217Z,7.27
2022-11-05T07:31:51.956Z,7.97
2022-11-05T07:34:19.671Z,7.70
2022-11-05T07:36:47.404Z,8.13
2022-11-05T07:39:15.351Z,8.30
2022-11-05T07:41:44.419Z,8.70
2022-11-05T07:44:14.277Z,7.93
2022-11-05T07:46:42.211Z,8.70
2022-11-05T07:49:09.974Z,8.00
2022-11-05T07:51:37.656Z,8.67
2022-11-05T07:54:05.605Z,9.20
2022-11-05T07:56:34.209Z,9.17
2022-11-05T07:59:03.469Z,8.83
2022-11-05T08:01:31.389Z,9.73
2022-11-05T08:03:59.249Z,9.80
2022-11-05T08:06:26.962Z,10.10
2022-11-05T08:08:54.698Z,9.90
2022-11-05T08:11:22.515Z,11.03
2022-11-05T08:13:50.272Z,11.20
2022-11-05T08:16:19.342Z,11.30
2022-11-05T08:18:48.232Z,10.93
2022-11-05T08:21:15.992Z,11.47
2022-11-05T08:23:43.792Z,11.20
2022-11-05T08:26:11.984Z,11.23
2022-11-05T08:28:39.707Z,11.77
2022-11-05T08:31:07.469Z,11.33
2022-11-05T08:33:36.529Z,10.80
2022-11-05T08:36:05.756Z,10.87
2022-11-05T08:38:34.253Z,11.70
2022-11-05T08:41:02.246Z,11.53
2022-11-05T08:43:29.935Z,10.10
2022-11-05T08:45:57.665Z,10.07
2022-11-05T08:48:26.232Z,10.53
2022-11-05T08:50:55.604Z,10.93
2022-11-05T08:53:23.353Z,10.67
2022-11-05T08:55:51.511Z,11.53
2022-11-05T08:58:20.705Z,11.63
2022-11-05T09:00:50.388Z,10.23
2022-11-05T09:03:18.730Z,10.90
2022-11-05T09:05:46.684Z,9.60
2022-11-05T09:08:17.681Z,10.47
2022-11-05T09:10:46.678Z,10.33
2022-11-05T09:13:18.764Z,9.97
2022-11-05T09:15:47.576Z,9.93
2022-11-05T09:18:15.857Z,9.63
2022-11-05T09:20:43.942Z,9.10
2022-11-05T09:23:14.093Z,10.10
2022-11-05T09:25:43.539Z,8.93
2022-11-05T09:28:16.461Z,8.67
2022-11-05T09:30:45.891Z,9.43
2022-11-05T09:33:14.123Z,9.00
2022-11-05T09:35:42.966Z,7.80
2022-11-05T09:38:10.961Z,8.60
2022-11-05T09:40:42.669Z,7.40
2022-11-05T09:43:19.679Z,8.10
2022-11-05T09:45:50.857Z,7.57
2022-11-05T09:48:23.672Z,7.13
2022-11-05T09:50:53.286Z,8.10
2022-11-05T09:53:23.746Z,8.27
2022-11-05T09:55:54.268Z,8.80
2022-11-05T09:58:32.448Z,7.90
2022-11-05T10:01:01.476Z,8.10
2022-11-05T10:03:31.391Z,7.70
2022-11-05T10:06:10.266Z,7.87
2022-11-05T10:08:43.256Z,6.20
2022-11-05T10:11:16.760Z,6.00
2022-11-05T10:13:48.872Z,6.53
2022-11-05T10:16:24.716Z,6.13
2022-11-05T10:18:55.916Z,6.20
2022-11-05T10:21:44.103Z,5.93
2022-11-05T10:24:15.641Z,5.30
2022-11-05T10:26:46.048Z,5.93
2022-11-05T10:29:23.525Z,5.13
2022-11-05T10:31:53.433Z,6.00
2022-11-05T10:34:23.263Z,5.77
2022-11-05T10:36:51.026Z,5.50
2022-11-05T10:39:20.563Z,5.60
2022-11-05T10:41:59.596Z,5.80
2022-11-05T10:44:34.838Z,5.77
2022-11-05T10:47:23.918Z,6.87
2022-11-05T10:49:58.534Z,6.50
2022-11-05T10:52:29.178Z,6.10
2022-11-05T10:55:01.822Z,6.77
2022-11-05T10:57:33.770Z,5.47
2022-11-05T11:00:23.672Z,4.73
2022-11-05T11:02:53.166Z,4.53
2022-11-05T11:05:24.004Z,4.23
2022-11-05T11:07:57.752Z,4.80
2022-11-05T11:10:26.911Z,5.10
2022-11-05T11:12:56.155Z,5.03
2022-11-05T11:15:28.294Z,5.60
2022-11-05T11:17:57.303Z,5.73
2022-11-05T11:20:28.467Z,5.83
2022-11-05T11:23:01.879Z,5.70
2022-11-05T11:25:31.780Z,5.83
2022-11-05T11:28:04.265Z,5.93
2022-11-05T11:30:35.095Z,5.77
2022-11-05T11:33:08.344Z,5.53
2022-11-05T11:35:38.815Z,6.30
2022-11-05T11:38:07.939Z,5.27
2022-11-05T11:40:39.283Z,5.97
2022-11-05T11:43:18.252Z,6.13
2022-11-05T11:45:49.800Z,5.80
2022-11-05T11:48:20.038Z,5.40
2022-11-05T11:50:49.593Z,6.10
2022-11-05T11:53:29.251Z,6.30
2022-11-05T11:56:15.487Z,5.40
2022-11-05T11:58:46.281Z,5.90
2022-11-05T12:01:26.283Z,5.80
2022-11-05T12:04:00.816Z,5.17
2022-11-05T12:06:36.954Z,5.67
2022-11-05T12:09:13.492Z,5.80
2022-11-05T12:11:48.651Z,5.43
2022-11-05T12:14:25.119Z,5.90
2022-11-05T12:17:09.880Z,5.63
2022-11-05T12:20:02.727Z,5.37
2022-11-05T12:22:41.238Z,5.30
2022-11-05T12:25:18.571Z,5.67
2022-11-05T12:28:16.882Z,6.07
2022-11-05T12:30:54.533Z,5.87
2022-11-05T12:33:37.376Z,5.87
2022-11-05T12:36:22.561Z,5.93
2022-11-05T12:39:04.568Z,6.10
2022-11-05T12:41:37.747Z,6.97
2022-11-05T12:44:24.344Z,6.30
2022-11-05T12:47:03.408Z,6.67
2022-11-05T12:49:44.902Z,6.10
2022-11-05T12:52:29.468Z,6.07
2022-11-05T12:55:04.512Z,7.23
2022-11-05T12:57:36.985Z,7.30
2022-11-05T13:00:08.879Z,6.03
2022-11-05T13:02:41.346Z,6.53
2022-11-05T13:05:17.445Z,6.73
2022-11-05T13:07:50.459Z,6.53
2022-11-05T13:10:26.197Z,6.53
2022-11-05T13:13:02.040Z,5.83
2022-11-05T13:15:34.822Z,5.77
2022-11-05T13:18:06.831Z,5.40
2022-11-05T13:20:39.697Z,5.83
2022-11-05T13:23:17.255Z,5.77
2022-11-05T13:25:50.539Z,5.23
2022-11-05T13:28:26.635Z,5.30
2022-11-05T13:30:58.881Z,5.40
2022-11-05T13:33:31.919Z,5.87
2022-11-05T13:36:25.456Z,4.97
2022-11-05T13:39:00.621Z,4.50
2022-11-05T13:41:36.245Z,4.60
2022-11-05T13:44:18.790Z,4.60
2022-11-05T13:47:10.527Z,4.80
2022-11-05T13:50:01.908Z,4.80
2022-11-05T13:52:53.384Z,4.17
2022-11-05T13:55:54.110Z,4.47
2022-11-05T13:58:41.819Z,3.97
2022-11-05T14:01:18.772Z,4.10
2022-11-05T14:03:49.446Z,4.43
2022-11-05T14:06:25.707Z,3.90
2022-11-05T14:08:59.209Z,4.03
2022-11-05T14:11:30.152Z,4.03
2022-11-05T14:14:00.207Z,3.60
2022-11-05T14:16:30.243Z,4.27
2022-11-05T14:19:28.869Z,3.73
2022-11-05T14:21:57.456Z,3.70
2022-11-05T14:24:39.728Z,3.50
2022-11-05T14:27:53.260Z,3.50
2022-11-05T14:30:44.778Z,3.43
2022-11-05T14:33:33.681Z,2.90
2022-11-05T14:36:34.537Z,3.30
2022-11-05T14:39:20.420Z,3.73
2022-11-05T14:42:02.984Z,3.87
2022-11-05T14:44:33.687Z,3.10
2022-11-05T14:47:05.602Z,3.30
2022-11-05T14:49:36.906Z,3.20
2022-11-05T14:52:09.996Z,3.30
2022-11-05T14:54:45.026Z,3.03
2022-11-05T14:57:16.506Z,3.60
2022-11-05T15:00:02.053Z,3.87
2022-11-05T15:02:36.845Z,3.63
2022-11-05T15:05:40.143Z,3.67
2022-11-05T15:08:31.468Z,3.50
2022-11-05T15:11:08.569Z,3.97
2022-11-05T15:13:47.768Z,3.80
2022-11-05T15:16:20.461Z,3.40
2022-11-05T15:18:48.707Z,3.40
2022-11-05T15:21:19.079Z,3.50
2022-11-05T15:23:48.407Z,3.80
2022-11-05T15:26:23.999Z,4.10
2022-11-05T15:28:54.541Z,3.57
2022-11-05T15:31:29.867Z,3.53
2022-11-05T15:34:17.990Z,3.60
2022-11-05T15:36:56.982Z,2.97
2022-11-05T15:39:34.081Z,3.30
2022-11-05T15:42:05.803Z,2.77
2022-11-05T15:44:40.396Z,2.90
2022-11-05T15:47:14.144Z,3.40
2022-11-05T15:49:44.317Z,2.70
2022-11-05T15:52:14.404Z,3.27
2022-11-05T15:54:42.411Z,3.10
2022-11-05T15:57:21.431Z,3.00
2022-11-05T15:59:50.990Z,2.97
2022-11-05T16:02:29.763Z,2.40
2022-11-05T16:04:58.667Z,3.00
2022-11-05T16:07:27.070Z,2.67
2022-11-05T16:09:57.166Z,2.97
2022-11-05T16:12:31.332Z,2.83
2022-11-05T16:15:04.864Z,2.77
2022-11-05T16:17:46.386Z,2.93
2022-11-05T16:20:36.090Z,3.43
2022-11-05T16:23:07.859Z,3.23
2022-11-05T16:25:39.967Z,2.73
2022-11-05T16:28:21.278Z,3.10
2022-11-05T16:30:58.574Z,3.23
2022-11-05T16:33:32.164Z,2.97
2022-11-05T16:35:59.964Z,3.07
2022-11-05T16:38:28.661Z,2.87
2022-11-05T16:40:56.805Z,3.33
2022-11-05T16:43:25.989Z,2.50
2022-11-05T16:45:55.419Z,2.83
2022-11-05T16:48:25.118Z,2.50
2022-11-05T16:50:53.272Z,2.50
2022-11-05T16:53:21.313Z,2.90
2022-11-05T16:55:49.072Z,2.93
2022-11-05T16:58:21.537Z,2.60
2022-11-05T17:00:50.368Z,2.73
2022-11-05T17:03:18.584Z,2.90
2022-11-05T17:05:48.047Z,2.63
2022-11-05T17:08:16.025Z,2.87
2022-11-05T17:10:44.049Z,2.93
2022-11-05T17:13:15.197Z,3.33
2022-11-05T17:15:44.970Z,3.67
2022-11-05T17:18:18.176Z,2.57
2022-11-05T17:20:49.643Z,2.37
2022-11-05T17:23:19.800Z,2.10
2022-11-05T17:25:50.351Z,2.53
2022-11-05T17:28:18.919Z,3.03
2022-11-05T17:30:52.389Z,3.00
2022-11-05T17:33:22.663Z,2.33
2022-11-05T17:35:53.199Z,2.80
2022-11-05T17:38:22.490Z,2.63
2022-11-05T17:40:50.501Z,2.97
2022-11-05T17:43:18.805Z,2.80
2022-11-05T17:45:48.375Z,2.73
2022-11-05T17:48:16.962Z,3.27
2022-11-05T17:50:46.242Z,3.53
2022-11-05T17:53:17.578Z,3.33
2022-11-05T17:55:46.356Z,3.57
2022-11-05T17:58:14.521Z,3.20
2022-11-05T18:00:43.341Z,3.10
2022-11-05T18:03:11.662Z,3.00
2022-11-05T18:05:40.393Z,3.53
2022-11-05T18:08:08.842Z,3.50
2022-11-05T18:10:39.363Z,3.60
2022-11-05T18:13:07.583Z,3.50
2022-11-05T18:15:37.952Z,3.23
2022-11-05T18:18:05.805Z,4.07
2022-11-05T18:20:33.717Z,4.00
2022-11-05T18:23:01.461Z,3.70
2022-11-05T18:25:29.549Z,3.57
2022-11-05T18:27:58.626Z,3.30
2022-11-05T18:30:26.360Z,3.47
2022-11-05T18:32:54.262Z,3.87
2022-11-05T18:35:22.043Z,3.87
2022-11-05T18:37:49.769Z,3.73
2022-11-05T18:40:17.577Z,3.37
2022-11-05T18:42:45.342Z,3.40
2022-11-05T18:45:14.673Z,3.60
2022-11-05T18:47:42.436Z,3.47
2022-11-05T18:50:10.683Z,3.67
2022-11-05T18:52:38.474Z,3.33
2022-11-05T18:55:07.349Z,4.13
2022-11-05T18:57:35.553Z,4.03
2022-11-05T19:00:03.820Z,3.80
2022-11-05T19:02:33.230Z,3.87
2022-11-05T19:05:27.272Z,3.30
2022-11-05T19:07:48.848Z,3.00
2022-11-05T19:10:16.987Z,3.53
2022-11-05T19:12:44.736Z,3.13
2022-11-05T19:15:12.733Z,3.63
2022-11-05T19:17:41.951Z,4.30
2022-11-05T19:20:11.448Z,4.17
2022-11-05T19:22:39.142Z,4.33
2022-11-05T19:25:08.019Z,3.80
2022-11-05T19:27:36.168Z,4.10
2022-11-05T19:30:04.334Z,4.00
2022-11-05T19:32:32.110Z,4.47
2022-11-05T19:35:01.146Z,4.73
2022-11-05T19:37:28.900Z,4.80
2022-11-05T19:39:56.710Z,4.53
2022-11-05T19:42:24.430Z,4.23
2022-11-05T19:44:52.285Z,4.00
2022-11-05T19:47:20.022Z,3.97
2022-11-05T19:49:47.760Z,4.87
2022-11-05T19:52:16.826Z,4.17
2022-11-05T19:54:45.995Z,4.57
2022-11-05T19:57:14.014Z,4.73
2022-11-05T19:59:41.734Z,4.50
2022-11-05T20:02:16.078Z,4.50
2022-11-05T20:04:44.259Z,4.43
2022-11-05T20:07:12.061Z,3.97
2022-11-05T20:09:41.388Z,4.10
2022-11-05T20:12:09.172Z,4.20
2022-11-05T20:14:37.109Z,4.30
2022-11-05T20:17:04.940Z,4.53
2022-11-05T20:19:33.519Z,3.93
2022-11-05T20:22:01.556Z,4.00
2022-11-05T20:24:29.446Z,3.80
2022-11-05T20:26:58.575Z,4.00
2022-11-05T20:29:33.912Z,4.50
2022-11-05T20:32:03.870Z,4.30
2022-11-05T20:34:32.666Z,4.63
2022-11-05T20:37:00.684Z,4.10
2022-11-05T20:39:28.780Z,4.10
2022-11-05T20:42:00.298Z,4.50
2022-11-05T20:44:28.015Z,4.30
2022-11-05T20:46:55.757Z,4.20
2022-11-05T20:49:25.709Z,4.73
2022-11-05T20:51:53.957Z,4.37
2022-11-05T20:54:21.669Z,4.47
2022-11-05T20:56:49.401Z,4.50
2022-11-05T20:59:18.485Z,4.70
2022-11-05T21:01:46.558Z,4.00
2022-11-05T21:04:14.413Z,4.30
2022-11-05T21:06:42.242Z,4.50
2022-11-05T21:09:09.994Z,4.70
2022-11-05T21:11:51.638Z,4.87
2022-11-05T21:14:21.107Z,4.10
2022-11-05T21:16:48.833Z,3.97
2022-11-05T21:19:16.579Z,4.20
2022-11-05T21:21:44.369Z,4.30
2022-11-05T21:24:12.138Z,4.10
2022-11-05T21:26:39.980Z,3.43
2022-11-05T21:29:08.501Z,3.00
2022-11-05T21:31:38.584Z,3.40
2022-11-05T21:34:06.360Z,2.87
2022-11-05T21:36:34.255Z,2.70
2022-11-05T21:39:07.765Z,2.57
2022-11-05T21:41:38.845Z,2.80
2022-11-05T21:44:06.591Z,2.80
2022-11-05T21:46:34.354Z,3.07
2022-11-05T21:49:03.411Z,2.60
2022-11-05T21:51:48.479Z,2.90
2022-11-05T21:54:33.853Z,2.60
2022-11-05T21:57:19.157Z,3.17
2022-11-05T21:59:51.639Z,2.60
2022-11-05T22:02:22.101Z,2.60
2022-11-05T22:04:53.075Z,2.60
2022-11-05T22:07:22.616Z,3.67
2022-11-05T22:09:50.806Z,2.67
2022-11-05T22:12:19.116Z,2.90
2022-11-05T22:14:46.862Z,2.97
2022-11-05T22:17:16.449Z,3.00
2022-11-05T22:19:44.236Z,2.73
2022-11-05T22:22:14.032Z,2.67
2022-11-05T22:24:42.479Z,3.00
2022-11-05T22:27:13.649Z,2.70
2022-11-05T22:29:41.431Z,2.90
2022-11-05T22:32:10.401Z,2.90
2022-11-05T22:34:38.232Z,2.67
2022-11-05T22:37:06.120Z,3.03
2022-11-05T22:39:35.574Z,2.57
2022-11-05T22:42:08.216Z,2.70
2022-11-05T22:44:37.118Z,2.90
2022-11-05T22:47:05.411Z,2.77
2022-11-05T22:49:34.045Z,2.97
2022-11-05T22:52:01.772Z,2.60
2022-11-05T22:54:31.727Z,2.33
2022-11-05T22:57:03.028Z,2.30
2022-11-05T22:59:30.868Z,2.57
2022-11-05T23:01:58.709Z,2.60
2022-11-05T23:04:26.479Z,2.60
2022-11-05T23:07:11.864Z,2.50
2022-11-05T23:09:57.284Z,2.13
2022-11-05T23:12:28.739Z,2.50
2022-11-05T23:14:58.209Z,2.30
2022-11-05T23:17:43.907Z,2.17
2022-11-05T23:20:31.260Z,2.87
2022-11-05T23:23:17.169Z,2.43
2022-11-05T23:25:45.016Z,2.90
2022-11-05T23:28:14.600Z,2.33
2022-11-05T23:30:58.807Z,2.47
2022-11-05T23:33:26.623Z,2.67
2022-11-05T23:36:08.351Z,2.37
2022-11-05T23:38:36.127Z,2.53
2022-11-05T23:41:22.093Z,2.67
2022-11-05T23:44:08.735Z,3.33
2022-11-05T23:46:54.167Z,2.83
2022-11-05T23:49:22.178Z,2.57
2022-11-05T23:51:50.596Z,2.67
2022-11-05T23:54:18.394Z,2.87
2022-11-05T23:56:46.201Z,2.70
2022-11-05T23:59:15.357Z,3.13
